Latitude: N 50° 09' 49" Longitude: W 05° 11' 53" Elevation: 168m ASL

There are 5 visitors online

Adverts
Latest METAR Data

Below are the latest METARs ("Meteorological Services to Airmen Reports"), for RNAS Culdrose and Newquay Airport.

EGDR - RNAS Culdrose
Distance from station: SW 6mi, 9km
Updated: Thu, 25-Apr-2019 2:50pm BST
Partly Cloudy
Partly Cloudy
 Wind from SW
Wind: SW 18 mph , 30 km/h, Gust: 31 mph , 50 km/h
Temperature: 54°F , 12°C
Dew Point: 41°F , 5°C
Humidity: 63%
Barometer: 29.44 inHg , 997 hPa
Clouds: Partly Cloudy
Visibility: 6 miles , 10 km
Cloud details: Few Clouds 2200 ft
Few Clouds 2500 ft
Partly Cloudy 24000 ft
2019/04/25 13:50 EGDR 251350Z 22016G27KT 9999 FEW022CB FEW025TCU SCT240 12/05 Q0997 BLU TEMPO 7000 -SHRA SCT022TCU WHT
EGHQ - Newquay Airport
Distance from station: NE 21mi, 34km
Updated: Thu, 25-Apr-2019 2:20pm BST
Partly Cloudy
Partly Cloudy
 Wind from SSW
Wind: SSW 21 mph , 33 km/h
Temperature: 55°F , 13°C
Dew Point: 41°F , 5°C
Humidity: 59%
Barometer: 29.41 inHg , 996 hPa
Clouds: Partly Cloudy
Visibility: 6 miles , 10 km
Cloud details: Partly Cloudy 3700 ft
2019/04/25 13:20 EGHQ 251320Z 21018KT 9999 SCT037 13/05 Q0996
 
EGTE - Exeter Airport
Distance from station: ENE 88mi, 141km
Updated: Thu, 25-Apr-2019 2:50pm BST
Partly Cloudy
Partly Cloudy
 Wind from S
Wind: S 18 mph , 30 km/h
Temperature: 54°F , 12°C
Dew Point: 46°F , 8°C
Humidity: 77%
Barometer: 29.44 inHg , 997 hPa
Clouds: Partly Cloudy
Visibility: 6 miles , 10 km
Cloud details: Few Clouds 1700 ft
Partly Cloudy 2500 ft
2019/04/25 13:50 EGTE 251350Z 17016KT 9999 FEW017 SCT025CB 12/08 Q0997
EGHE - St Marys, IOS
Distance from station: W 51mi, 82km
Updated: Thu, 25-Apr-2019 2:50pm BST
Few Clouds
Few Clouds
 Wind from SSW
Wind: SSW 16 mph , 26 km/h
Temperature: 55°F , 13°C
Dew Point: 48°F , 9°C
Humidity: 77%
Barometer: 29.41 inHg , 996 hPa
Clouds: Few Clouds
Visibility: 6 miles , 10 km
Cloud details: Few Clouds 1500 ft
2019/04/25 13:50 EGHE 251350Z 20014KT 9999 FEW015 13/09 Q0996

Metar display script from Saratoga-Weather.org

UK - WEATHER STATION TOPSITES - UK World Weather Websites

This is a private weather station, never base important decisions or events on data from this weather station. Although every effort has been made to make the data as accurate as possible it does not meet MetOffice standards. It is proved as a guide of local weather conditions. We accept no liability for any loss which may arise from use of the data.

Copyright © Carnkie Weather 2009 - 2019.